Time;durP1;ratioP1;P1;durP2;ratioP2;P2;SDS_P1;SDS_P2;PMS_P1;PMS_P2;Temp;Humidity;BMP_temperature;BMP_pressure;BME280_temperature;BME280_humidity;BME280_pressure;Samples;Min_cycle;Max_cycle;Signal;HPM_P1;HPM_P2
2023/05/13 04:52:13;;;;;;;5.85;5.20;;;16.40;71.30;;;;;;4721647;30;20453;-71
2023/05/13 04:54:39;;;;;;;10.02;6.32;;;16.50;72.00;;;;;;4730936;30;20049;-73
2023/05/13 04:57:05;;;;;;;10.20;6.60;;;16.50;71.40;;;;;;4719900;30;20495;-72
2023/05/13 04:59:31;;;;;;;11.20;6.47;;;16.50;70.70;;;;;;4739287;30;20053;-75
2023/05/13 05:01:57;;;;;;;14.02;6.38;;;16.40;70.60;;;;;;4733466;30;20543;-75
2023/05/13 05:04:24;;;;;;;11.80;6.22;;;16.40;70.80;;;;;;4730215;30;20057;-75
2023/05/13 05:06:49;;;;;;;8.20;5.80;;;16.40;70.40;;;;;;4706705;30;20045;-74
2023/05/13 05:09:16;;;;;;;10.23;5.53;;;16.40;70.50;;;;;;4736005;30;20359;-76
2023/05/13 05:11:42;;;;;;;9.32;6.72;;;16.40;70.70;;;;;;4737697;30;20149;-73
2023/05/13 05:14:08;;;;;;;12.43;7.35;;;16.40;71.10;;;;;;4738391;30;20103;-75
2023/05/13 05:16:33;;;;;;;11.43;6.13;;;16.30;71.30;;;;;;4738391;30;20056;-74
2023/05/13 05:18:59;;;;;;;15.13;6.40;;;16.40;71.60;;;;;;4723367;30;20056;-74
2023/05/13 05:21:25;;;;;;;14.27;6.57;;;16.40;71.70;;;;;;4753614;30;20483;-72
2023/05/13 05:23:51;;;;;;;23.10;7.18;;;16.40;71.50;;;;;;4756443;30;20147;-73
2023/05/13 05:26:16;;;;;;;12.23;6.28;;;16.40;72.30;;;;;;4756200;30;20142;-74
2023/05/13 05:28:43;;;;;;;21.50;7.13;;;16.40;71.50;;;;;;4754458;30;20102;-75
2023/05/13 05:31:10;;;;;;;15.95;6.80;;;16.40;72.00;;;;;;4738377;30;20130;-73
2023/05/13 05:33:36;;;;;;;18.10;6.60;;;16.40;72.30;;;;;;4722756;30;20378;-76
2023/05/13 05:36:02;;;;;;;14.98;6.47;;;16.40;72.00;;;;;;4738249;30;20064;-76
2023/05/13 05:38:28;;;;;;;30.13;8.27;;;16.40;72.20;;;;;;4738207;30;20072;-75
2023/05/13 05:40:53;;;;;;;39.58;7.45;;;16.50;73.00;;;;;;4738234;30;20061;-76
2023/05/13 05:43:19;;;;;;;20.40;6.20;;;16.50;72.90;;;;;;4737160;30;20056;-75
2023/05/13 05:45:45;;;;;;;20.48;7.00;;;16.50;73.00;;;;;;4738182;30;20393;-75
2023/05/13 05:48:11;;;;;;;21.73;7.75;;;16.60;73.40;;;;;;4737832;30;20052;-74
2023/05/13 05:50:36;;;;;;;19.80;6.32;;;16.60;73.20;;;;;;4743927;30;20135;-74
2023/05/13 05:53:03;;;;;;;23.23;6.95;;;16.60;73.10;;;;;;4755830;30;20135;-74
2023/05/13 05:55:30;;;;;;;19.90;6.18;;;16.60;73.10;;;;;;4756623;30;20490;-73
2023/05/13 05:57:56;;;;;;;18.30;6.30;;;16.60;73.20;;;;;;4746284;30;20143;-74
2023/05/13 06:00:23;;;;;;;21.67;6.28;;;16.60;72.60;;;;;;4753015;30;20195;-74
2023/05/13 06:02:49;;;;;;;16.30;5.82;;;16.60;72.00;;;;;;4752467;30;20056;-73
2023/05/13 06:05:15;;;;;;;28.08;8.23;;;16.60;72.20;;;;;;4737529;30;20048;-75
2023/05/13 06:07:41;;;;;;;30.70;7.50;;;16.60;72.90;;;;;;4741086;30;20371;-74
2023/05/13 06:10:07;;;;;;;21.27;7.13;;;16.70;73.20;;;;;;4752082;30;20062;-74
2023/05/13 06:12:33;;;;;;;19.60;6.45;;;16.70;73.30;;;;;;4754026;30;20139;-74
2023/05/13 06:15:00;;;;;;;26.40;6.90;;;16.70;73.30;;;;;;4755421;30;20132;-75
2023/05/13 06:17:26;;;;;;;43.20;8.13;;;16.80;73.30;;;;;;4755250;30;20052;-73
2023/05/13 06:19:51;;;;;;;36.13;8.40;;;16.80;73.60;;;;;;4754730;30;20504;-74
2023/05/13 06:22:17;;;;;;;34.67;8.23;;;16.90;73.50;;;;;;4755050;30;20056;-73
2023/05/13 06:24:43;;;;;;;34.00;7.80;;;16.90;73.20;;;;;;4754454;30;20107;-73
2023/05/13 06:27:12;;;;;;;28.58;7.35;;;17.00;73.10;;;;;;4754894;30;20063;-73
2023/05/13 06:29:38;;;;;;;32.80;7.95;;;17.00;73.00;;;;;;4741646;30;20417;-74
2023/05/13 06:32:04;;;;;;;23.55;5.63;;;17.00;72.90;;;;;;4739059;30;20084;-73
2023/05/13 06:34:30;;;;;;;22.63;6.13;;;17.00;72.80;;;;;;4736282;30;20053;-74
2023/05/13 06:36:56;;;;;;;24.13;6.97;;;17.10;72.70;;;;;;4721870;30;20056;-74
2023/05/13 06:39:22;;;;;;;20.38;6.55;;;17.10;72.70;;;;;;4737334;30;20074;-73
2023/05/13 06:41:48;;;;;;;26.80;6.18;;;17.10;72.70;;;;;;4737127;30;20084;-74
2023/05/13 06:44:13;;;;;;;28.38;6.85;;;17.10;72.60;;;;;;4737496;30;20103;-74
2023/05/13 06:46:39;;;;;;;20.58;5.90;;;17.10;72.60;;;;;;4737119;30;20422;-73
2023/05/13 06:49:05;;;;;;;20.75;6.72;;;17.20;72.50;;;;;;4737093;30;20066;-74
2023/05/13 06:51:32;;;;;;;19.08;5.22;;;17.20;72.50;;;;;;4752556;30;20064;-74
2023/05/13 06:53:58;;;;;;;18.13;5.70;;;17.20;72.40;;;;;;4753798;30;20533;-73
2023/05/13 06:56:24;;;;;;;19.67;5.40;;;17.20;72.40;;;;;;4741947;30;20127;-73
2023/05/13 06:58:51;;;;;;;17.55;4.80;;;17.30;72.50;;;;;;4751881;30;20130;-74
2023/05/13 07:01:17;;;;;;;19.05;5.38;;;17.30;72.50;;;;;;4754712;30;20059;-74
2023/05/13 07:03:43;;;;;;;13.18;5.03;;;17.30;72.50;;;;;;4754346;30;20417;-74
2023/05/13 07:06:09;;;;;;;14.68;5.20;;;17.30;72.50;;;;;;4754572;30;20056;-74
2023/05/13 07:08:35;;;;;;;15.70;5.28;;;17.40;72.50;;;;;;4754499;30;20052;-74
2023/05/13 07:11:01;;;;;;;10.13;4.20;;;17.40;72.50;;;;;;4754422;30;20059;-74
2023/05/13 07:13:28;;;;;;;10.05;4.28;;;17.40;72.50;;;;;;4749868;30;20049;-73
2023/05/13 07:15:53;;;;;;;13.75;4.88;;;17.40;72.50;;;;;;4737090;30;20126;-74
2023/05/13 07:18:19;;;;;;;12.15;4.25;;;17.40;72.40;;;;;;4736990;30;20369;-74
2023/05/13 07:20:45;;;;;;;16.23;4.68;;;17.50;72.50;;;;;;4736964;30;20144;-74
2023/05/13 07:23:11;;;;;;;11.80;4.38;;;17.50;72.50;;;;;;4736795;30;20063;-74
2023/05/13 07:25:36;;;;;;;12.98;4.40;;;17.50;72.50;;;;;;4736666;30;20052;-74
2023/05/13 07:28:03;;;;;;;10.77;4.40;;;17.50;72.50;;;;;;4737381;30;20065;-74
2023/05/13 07:30:29;;;;;;;9.18;4.22;;;17.50;72.50;;;;;;4736873;30;20136;-73
2023/05/13 07:32:55;;;;;;;10.40;4.20;;;17.50;73.10;;;;;;4736813;30;20052;-74
2023/05/13 07:35:20;;;;;;;10.18;4.07;;;17.50;72.50;;;;;;4736668;30;20068;-74
2023/05/13 07:37:46;;;;;;;11.30;4.03;;;17.60;72.60;;;;;;4737310;30;20052;-74
2023/05/13 07:40:14;;;;;;;10.10;3.88;;;17.60;72.70;;;;;;4736756;30;20436;-74
2023/05/13 07:42:40;;;;;;;9.73;3.80;;;17.50;72.60;;;;;;4736809;30;20057;-74
2023/05/13 07:45:07;;;;;;;8.20;3.55;;;17.60;72.70;;;;;;4737337;30;20135;-73
2023/05/13 07:47:32;;;;;;;8.27;3.72;;;17.60;72.70;;;;;;4737549;30;20053;-74
2023/05/13 07:49:59;;;;;;;7.60;3.75;;;17.60;72.70;;;;;;4735335;30;20461;-74
2023/05/13 07:52:25;;;;;;;9.63;3.10;;;17.60;72.70;;;;;;4719114;30;20057;-74
2023/05/13 07:54:51;;;;;;;6.78;3.60;;;17.60;72.70;;;;;;4703611;30;20049;-74
2023/05/13 07:57:17;;;;;;;11.00;3.92;;;17.60;72.80;;;;;;4718378;30;20055;-75
2023/05/13 07:59:43;;;;;;;11.35;4.75;;;17.60;72.70;;;;;;4735610;30;20074;-74
2023/05/13 08:02:10;;;;;;;8.13;4.53;;;17.60;72.80;;;;;;4736309;30;20067;-73
2023/05/13 08:04:35;;;;;;;20.63;5.57;;;17.70;72.80;;;;;;4736372;30;20079;-76
2023/05/13 08:07:01;;;;;;;15.02;4.95;;;17.70;73.00;;;;;;4727674;30;20045;-74
2023/05/13 08:09:27;;;;;;;20.35;5.25;;;17.70;73.10;;;;;;4735695;30;20060;-73
2023/05/13 08:11:53;;;;;;;23.23;5.25;;;17.70;73.30;;;;;;4739797;30;20059;-76
2023/05/13 08:14:19;;;;;;;23.13;5.07;;;17.70;73.60;;;;;;4739365;30;20061;-76
2023/05/13 08:16:45;;;;;;;16.15;5.10;;;17.70;73.70;;;;;;4739275;30;20504;-78
2023/05/13 08:19:13;;;;;;;21.45;5.72;;;17.80;73.80;;;;;;4738794;30;20500;-77
2023/05/13 08:21:38;;;;;;;18.10;5.05;;;17.80;73.70;;;;;;4738211;30;20052;-78
2023/05/13 08:24:05;;;;;;;18.92;5.38;;;17.80;73.50;;;;;;4738520;30;20381;-77
2023/05/13 08:26:31;;;;;;;20.98;5.38;;;17.80;73.50;;;;;;4737492;30;20064;-75
2023/05/13 08:28:57;;;;;;;17.33;4.70;;;17.80;74.20;;;;;;4738203;30;20074;-76
2023/05/13 08:31:26;;;;;;;15.93;4.88;;;17.90;73.60;;;;;;4739734;30;20161;-78
2023/05/13 08:33:54;;;;;;;14.13;4.60;;;17.90;73.50;;;;;;4739634;30;20048;-77
2023/05/13 08:36:25;;;;;;;16.73;4.82;;;17.90;73.40;;;;;;4739888;30;20075;-78
2023/05/13 08:38:50;;;;;;;14.98;4.90;;;17.90;73.40;;;;;;4739334;30;20376;-77
2023/05/13 08:41:17;;;;;;;14.48;4.82;;;17.80;73.40;;;;;;4736440;30;20049;-75
2023/05/13 08:43:43;;;;;;;13.13;4.75;;;17.90;73.40;;;;;;4734292;30;20060;-77
2023/05/13 08:46:10;;;;;;;14.60;3.88;;;17.90;73.50;;;;;;4718220;30;20045;-78
2023/05/13 08:48:40;;;;;;;13.95;4.93;;;17.90;73.50;;;;;;4736396;30;20048;-78
2023/05/13 08:51:09;;;;;;;9.88;3.75;;;17.90;73.60;;;;;;4735702;30;20056;-76
2023/05/13 08:53:37;;;;;;;15.48;4.45;;;17.90;73.60;;;;;;4733114;30;20461;-79
2023/05/13 08:56:05;;;;;;;11.93;4.40;;;17.90;73.60;;;;;;4738543;30;20056;-78
2023/05/13 08:58:30;;;;;;;14.43;4.55;;;17.90;73.60;;;;;;4738017;30;20464;-76
2023/05/13 09:00:57;;;;;;;15.40;3.90;;;18.00;73.60;;;;;;4730156;30;20111;-78
2023/05/13 09:03:26;;;;;;;9.93;4.15;;;18.00;73.60;;;;;;4738425;30;20066;-77
2023/05/13 09:05:51;;;;;;;11.13;4.20;;;18.00;73.60;;;;;;4738312;30;20052;-76
2023/05/13 09:08:17;;;;;;;11.52;4.60;;;18.00;73.60;;;;;;4738102;30;20059;-77
2023/05/13 09:10:43;;;;;;;12.20;3.95;;;18.00;73.60;;;;;;4738285;30;20131;-77
2023/05/13 09:13:12;;;;;;;13.38;4.13;;;18.00;73.60;;;;;;4738247;30;20196;-77
2023/05/13 09:15:40;;;;;;;14.50;5.22;;;18.10;73.70;;;;;;4739931;30;20376;-76
2023/05/13 09:18:06;;;;;;;8.40;3.53;;;18.10;73.60;;;;;;4745948;30;20080;-79
2023/05/13 09:20:33;;;;;;;11.55;4.32;;;18.10;73.60;;;;;;4746090;30;20201;-77
2023/05/13 09:23:05;;;;;;;10.32;3.92;;;18.10;73.60;;;;;;4746616;30;20059;-78
2023/05/13 09:25:31;;;;;;;16.13;4.15;;;18.10;73.60;;;;;;4745008;30;20060;-77
2023/05/13 09:28:01;;;;;;;9.73;3.72;;;18.10;73.60;;;;;;4742480;30;20125;-78
2023/05/13 09:30:40;;;;;;;9.05;3.42;;;18.10;73.60;;;;;;4736516;30;20057;-77
2023/05/13 09:33:18;;;;;;;11.88;3.90;;;18.10;73.60;;;;;;4742587;30;20090;-76
2023/05/13 09:35:52;;;;;;;8.30;3.53;;;18.20;73.50;;;;;;4743290;30;20048;-79
2023/05/13 09:38:18;;;;;;;;;;;18.10;73.50;;;;;;4746267;30;20434;-76
2023/05/13 09:40:58;;;;;;;9.10;3.90;;;18.20;73.40;;;;;;4743593;30;19926;-76
2023/05/13 09:43:31;;;;;;;7.55;3.30;;;18.20;73.60;;;;;;4740515;30;20469;-76
2023/05/13 09:46:00;;;;;;;7.13;3.42;;;18.20;73.60;;;;;;4741526;30;20538;-77
2023/05/13 09:48:28;;;;;;;5.35;3.25;;;18.20;73.50;;;;;;4746565;30;20135;-76
2023/05/13 09:50:56;;;;;;;6.35;3.20;;;18.20;73.50;;;;;;4753220;30;20103;-76
2023/05/13 09:53:25;;;;;;;6.28;3.58;;;18.20;73.60;;;;;;4742097;30;20465;-78
2023/05/13 09:55:53;;;;;;;7.20;3.33;;;18.20;73.60;;;;;;4762915;30;20052;-77
2023/05/13 09:58:20;;;;;;;5.90;3.33;;;18.20;73.60;;;;;;4766486;30;20126;-77
2023/05/13 10:00:46;;;;;;;10.23;3.47;;;18.20;73.50;;;;;;4756145;30;20060;-77
2023/05/13 10:03:13;;;;;;;11.57;3.78;;;18.20;73.40;;;;;;4755659;30;20071;-77
2023/05/13 10:05:40;;;;;;;10.13;3.50;;;18.30;73.50;;;;;;4740959;30;20150;-76
2023/05/13 10:08:10;;;;;;;7.38;3.67;;;18.20;73.40;;;;;;4737317;30;20446;-76
2023/05/13 10:10:37;;;;;;;9.65;3.78;;;18.30;73.50;;;;;;4737935;30;20049;-76
2023/05/13 10:13:06;;;;;;;12.00;3.60;;;18.30;73.50;;;;;;4738237;30;20147;-76
2023/05/13 10:15:33;;;;;;;12.95;4.43;;;18.30;73.40;;;;;;4722689;30;20079;-76
2023/05/13 10:18:00;;;;;;;6.47;3.53;;;18.30;73.50;;;;;;4737554;30;20095;-76
2023/05/13 10:20:26;;;;;;;15.90;3.30;;;18.30;73.40;;;;;;4737514;30;20056;-75
2023/05/13 10:22:54;;;;;;;8.13;3.40;;;18.30;73.50;;;;;;4737630;30;20056;-81
2023/05/13 10:25:20;;;;;;;11.52;4.30;;;18.30;73.50;;;;;;4737300;30;20080;-81
2023/05/13 10:27:46;;;;;;;12.23;4.30;;;18.30;73.50;;;;;;4749559;30;20055;-76
2023/05/13 10:30:15;;;;;;;11.75;4.00;;;18.30;73.70;;;;;;4755128;30;20040;-78
2023/05/13 10:32:40;;;;;;;14.43;4.80;;;18.30;73.70;;;;;;4755263;30;20052;-78
2023/05/13 10:35:11;;;;;;;11.88;4.13;;;18.30;73.70;;;;;;4754807;30;20054;-78
2023/05/13 10:37:56;;;;;;;17.08;3.90;;;18.30;73.70;;;;;;4754767;30;20189;-77
2023/05/13 10:40:30;;;;;;;13.55;4.20;;;18.30;73.60;;;;;;4754727;30;20138;-78
2023/05/13 10:43:20;;;;;;;15.40;3.85;;;18.30;73.70;;;;;;4739503;30;20346;-78
2023/05/13 10:46:18;;;;;;;9.70;4.18;;;18.30;73.60;;;;;;4754447;30;20064;-78
2023/05/13 10:48:48;;;;;;;19.83;4.38;;;18.30;73.50;;;;;;4717579;30;20468;-77
2023/05/13 10:51:16;;;;;;;15.88;5.35;;;18.40;73.70;;;;;;4747817;30;20119;-77
2023/05/13 10:53:53;;;;;;;28.48;6.13;;;18.30;73.90;;;;;;4737180;30;20057;-77
2023/05/13 10:56:20;;;;;;;15.77;6.55;;;18.30;73.00;;;;;;4752839;30;20131;-80
2023/05/13 10:59:02;;;;;;;14.98;5.78;;;18.30;72.70;;;;;;4754688;30;20052;-77
2023/05/13 11:01:33;;;;;;;19.75;7.30;;;18.30;72.20;;;;;;4754218;30;20071;-78
2023/05/13 11:04:01;;;;;;;13.05;6.47;;;18.30;72.00;;;;;;4752646;30;20483;-77
2023/05/13 11:06:36;;;;;;;23.60;7.65;;;18.30;71.70;;;;;;4739002;30;20062;-80
2023/05/13 11:09:14;;;;;;;14.52;7.03;;;18.30;71.50;;;;;;4739327;30;20100;-85
2023/05/13 11:11:41;;;;;;;11.63;7.40;;;18.20;71.40;;;;;;4724725;30;20362;-83
2023/05/13 11:14:21;;;;;;;16.30;7.97;;;18.20;71.00;;;;;;4722295;30;20464;-79
2023/05/13 11:17:07;;;;;;;12.43;8.52;;;18.20;70.20;;;;;;4738526;30;20048;-83
2023/05/13 11:19:43;;;;;;;13.00;8.45;;;18.20;69.90;;;;;;4723687;30;20139;-84
2023/05/13 11:22:20;;;;;;;13.95;7.57;;;18.20;69.90;;;;;;4738595;30;20048;-84
2023/05/13 11:25:09;;;;;;;14.30;7.05;;;18.20;70.20;;;;;;4725250;30;20059;-81
2023/05/13 11:27:39;;;;;;;20.33;7.63;;;18.20;70.60;;;;;;4738612;30;20036;-81
2023/05/13 11:30:07;;;;;;;24.20;7.47;;;18.20;70.90;;;;;;4738057;30;20084;-80
2023/05/13 11:32:53;;;;;;;21.52;8.18;;;18.20;71.20;;;;;;4738347;30;20495;-81
2023/05/13 11:35:27;;;;;;;15.38;6.95;;;18.20;71.40;;;;;;4724407;30;20064;-81
2023/05/13 11:37:57;;;;;;;24.13;7.78;;;18.20;71.40;;;;;;4754098;30;20356;-81
2023/05/13 11:40:27;;;;;;;31.33;8.60;;;18.20;71.60;;;;;;4724866;30;20044;-75
2023/05/13 11:42:53;;;;;;;23.65;7.55;;;18.20;71.90;;;;;;4757655;30;20040;-76
2023/05/13 11:45:22;;;;;;;24.75;8.30;;;18.30;72.00;;;;;;4757740;30;20045;-75
2023/05/13 11:47:49;;;;;;;22.77;7.88;;;18.30;72.20;;;;;;4757728;30;20063;-74
2023/05/13 11:50:29;;;;;;;16.23;6.95;;;18.30;72.10;;;;;;4757339;30;20068;-74
2023/05/13 11:52:59;;;;;;;20.40;8.05;;;18.30;72.00;;;;;;4757340;30;20052;-73
2023/05/13 11:55:27;;;;;;;19.40;6.78;;;18.30;72.00;;;;;;4752967;30;20049;-75
2023/05/13 11:57:53;;;;;;;25.08;7.82;;;18.30;72.00;;;;;;4747679;30;20052;-76
2023/05/13 12:00:30;;;;;;;19.42;8.15;;;18.30;72.00;;;;;;4727533;30;20067;-73
2023/05/13 12:02:57;;;;;;;20.90;11.32;;;18.30;72.80;;;;;;4755893;30;20056;-75
2023/05/13 12:05:23;;;;;;;19.00;10.00;;;18.30;72.60;;;;;;4757619;30;20052;-75
2023/05/13 12:07:50;;;;;;;18.30;9.10;;;18.30;72.80;;;;;;4757374;30;20066;-71
2023/05/13 12:10:16;;;;;;;21.00;9.55;;;18.30;72.80;;;;;;4757455;30;20056;-71
2023/05/13 12:12:44;;;;;;;18.00;7.65;;;18.30;73.10;;;;;;4757580;30;20540;-73
2023/05/13 12:15:16;;;;;;;16.55;7.45;;;18.40;73.00;;;;;;4757846;30;20060;-73
2023/05/13 12:17:42;;;;;;;14.55;7.88;;;18.40;72.90;;;;;;4742300;30;20356;-73
2023/05/13 12:20:12;;;;;;;17.08;7.00;;;18.40;72.90;;;;;;4756978;30;20468;-71
2023/05/13 12:22:43;;;;;;;15.52;8.10;;;18.40;72.70;;;;;;4757557;30;20102;-73
2023/05/13 12:25:34;;;;;;;15.30;7.22;;;18.40;72.90;;;;;;4757185;30;20142;-72
2023/05/13 12:28:21;;;;;;;21.80;8.32;;;18.50;73.10;;;;;;4753759;30;20045;-72
2023/05/13 12:30:58;;;;;;;16.52;7.97;;;18.40;72.90;;;;;;4739462;30;20121;-74
2023/05/13 12:33:27;;;;;;;20.73;8.32;;;18.50;73.10;;;;;;4739152;30;20052;-76
2023/05/13 12:36:13;;;;;;;13.50;6.22;;;18.40;73.00;;;;;;4739151;30;20107;-76
2023/05/13 12:38:51;;;;;;;41.22;11.15;;;18.50;72.80;;;;;;4739418;30;20357;-73
2023/05/13 12:41:17;;;;;;;23.00;9.63;;;18.40;73.20;;;;;;4739225;30;20064;-73
2023/05/13 12:43:44;;;;;;;15.50;7.88;;;18.50;73.40;;;;;;4739232;30;20045;-74
2023/05/13 12:46:10;;;;;;;28.17;8.70;;;18.50;73.20;;;;;;4739500;30;20063;-73
2023/05/13 12:48:36;;;;;;;29.00;9.57;;;18.50;73.30;;;;;;4738064;30;20056;-72
2023/05/13 12:51:02;;;;;;;45.67;10.00;;;18.50;73.50;;;;;;4738907;30;20071;-73
2023/05/13 12:53:28;;;;;;;31.10;9.88;;;18.50;73.70;;;;;;4748594;30;20063;-73
2023/05/13 12:55:54;;;;;;;20.70;8.43;;;18.50;73.50;;;;;;4756508;30;20102;-74
2023/05/13 12:58:19;;;;;;;22.00;7.38;;;18.50;72.60;;;;;;4742641;30;20065;-73
2023/05/13 13:00:45;;;;;;;18.75;8.80;;;18.50;72.40;;;;;;4756533;30;20424;-76
2023/05/13 13:03:11;;;;;;;11.80;7.47;;;18.50;72.10;;;;;;4756625;30;20376;-75
2023/05/13 13:05:37;;;;;;;15.95;8.75;;;18.50;71.80;;;;;;4755823;30;20168;-76
2023/05/13 13:08:04;;;;;;;11.88;7.28;;;18.50;71.70;;;;;;4740913;30;20071;-74
2023/05/13 13:10:29;;;;;;;14.82;7.72;;;18.50;71.60;;;;;;4756078;30;20126;-74
2023/05/13 13:12:55;;;;;;;10.55;7.97;;;18.50;71.70;;;;;;4756312;30;20052;-74
2023/05/13 13:15:21;;;;;;;9.80;7.15;;;18.50;71.70;;;;;;4756561;30;20048;-74
2023/05/13 13:17:47;;;;;;;12.70;6.53;;;18.50;71.60;;;;;;4756312;30;20122;-74
2023/05/13 13:20:13;;;;;;;10.07;6.20;;;18.50;71.60;;;;;;4756035;30;20089;-74
2023/05/13 13:22:38;;;;;;;9.70;6.25;;;18.50;71.70;;;;;;4756181;30;20056;-74
2023/05/13 13:25:05;;;;;;;10.85;5.95;;;18.50;71.90;;;;;;4756190;30;20064;-75
2023/05/13 13:27:32;;;;;;;13.57;5.82;;;18.50;71.90;;;;;;4747329;30;20365;-74
2023/05/13 13:29:58;;;;;;;9.18;6.03;;;18.50;72.00;;;;;;4737989;30;20053;-76
2023/05/13 13:32:23;;;;;;;9.95;5.95;;;18.50;72.10;;;;;;4737145;30;20056;-75
2023/05/13 13:34:49;;;;;;;8.45;5.88;;;18.50;72.10;;;;;;4738243;30;20059;-75
2023/05/13 13:37:15;;;;;;;8.38;5.45;;;18.50;72.10;;;;;;4738880;30;20056;-74
2023/05/13 13:39:41;;;;;;;9.63;5.70;;;18.50;72.20;;;;;;4738146;30;20048;-75
2023/05/13 13:42:07;;;;;;;9.05;5.65;;;18.50;72.20;;;;;;4738436;30;20045;-74
2023/05/13 13:44:32;;;;;;;7.65;5.45;;;18.50;72.30;;;;;;4738057;30;20078;-75
2023/05/13 13:46:58;;;;;;;9.63;5.93;;;18.50;72.30;;;;;;4738270;30;20350;-72
2023/05/13 13:49:24;;;;;;;7.22;5.57;;;18.50;72.30;;;;;;4738267;30;20394;-72
2023/05/13 13:51:51;;;;;;;7.20;5.22;;;18.50;72.20;;;;;;4737880;30;20060;-73
2023/05/13 13:54:17;;;;;;;10.02;5.57;;;18.50;72.10;;;;;;4738167;30;20114;-74
2023/05/13 13:56:43;;;;;;;8.15;5.05;;;18.50;72.00;;;;;;4741229;30;20052;-76
2023/05/13 13:59:09;;;;;;;7.95;5.50;;;18.50;72.00;;;;;;4747090;30;20056;-75
2023/05/13 14:01:35;;;;;;;8.18;5.63;;;18.50;72.00;;;;;;4755714;30;20052;-74
2023/05/13 14:04:10;;;;;;;7.63;6.05;;;18.50;71.90;;;;;;4754972;30;20098;-76
2023/05/13 14:06:36;;;;;;;11.35;5.60;;;18.50;71.70;;;;;;4755779;30;20052;-73
2023/05/13 14:09:02;;;;;;;12.30;5.65;;;18.50;71.80;;;;;;4755161;30;20478;-74
2023/05/13 14:11:28;;;;;;;13.45;6.03;;;18.50;72.10;;;;;;4755089;30;20051;-75
2023/05/13 14:13:54;;;;;;;15.73;6.30;;;18.50;72.10;;;;;;4755252;30;20051;-73
2023/05/13 14:16:20;;;;;;;12.52;6.10;;;18.50;71.90;;;;;;4755011;30;20090;-75
2023/05/13 14:18:45;;;;;;;18.48;6.70;;;18.50;72.00;;;;;;4755127;30;20063;-74
2023/05/13 14:21:11;;;;;;;17.08;5.85;;;18.50;72.00;;;;;;4755125;30;20067;-74
2023/05/13 14:23:37;;;;;;;24.40;6.88;;;18.50;72.30;;;;;;4755052;30;20055;-73
2023/05/13 14:26:03;;;;;;;22.20;6.25;;;18.50;72.60;;;;;;4755093;30;20079;-73
2023/05/13 14:28:29;;;;;;;17.08;6.20;;;18.50;72.90;;;;;;4738759;30;20113;-73
2023/05/13 14:30:54;;;;;;;17.50;6.43;;;18.60;73.10;;;;;;4721892;30;20064;-73
2023/05/13 14:33:20;;;;;;;17.52;6.10;;;18.60;73.40;;;;;;4737248;30;20052;-73
2023/05/13 14:35:46;;;;;;;16.88;6.47;;;18.60;73.70;;;;;;4744546;30;20060;-73
2023/05/13 14:38:12;;;;;;;20.77;6.35;;;18.50;74.00;;;;;;4755175;30;20139;-73
2023/05/13 14:40:38;;;;;;;18.13;6.78;;;18.60;74.20;;;;;;4755180;30;20049;-73
2023/05/13 14:43:03;;;;;;;13.23;5.68;;;18.60;74.40;;;;;;4754736;30;20055;-74
2023/05/13 14:45:29;;;;;;;20.42;6.10;;;18.60;74.40;;;;;;4754788;30;20056;-73
2023/05/13 14:47:55;;;;;;;17.00;5.53;;;18.60;74.60;;;;;;4754570;30;20055;-73
2023/05/13 14:50:21;;;;;;;20.70;7.13;;;18.60;74.60;;;;;;4750358;30;20056;-74
2023/05/13 14:52:46;;;;;;;18.08;6.55;;;18.60;74.70;;;;;;4741700;30;20079;-73
2023/05/13 14:55:12;;;;;;;26.58;6.88;;;18.60;74.50;;;;;;4738179;30;20144;-74
2023/05/13 14:57:38;;;;;;;20.30;6.55;;;18.60;74.40;;;;;;4738346;30;20056;-75
2023/05/13 15:00:04;;;;;;;35.60;8.73;;;18.60;74.40;;;;;;4736884;30;20053;-73
2023/05/13 15:02:30;;;;;;;19.17;6.03;;;18.60;75.10;;;;;;4736926;30;20092;-74
2023/05/13 15:04:56;;;;;;;16.33;6.95;;;18.60;74.80;;;;;;4737118;30;20099;-73
2023/05/13 15:07:21;;;;;;;22.73;7.15;;;18.60;74.40;;;;;;4737163;30;20454;-73
2023/05/13 15:09:47;;;;;;;15.80;6.65;;;18.60;74.30;;;;;;4737538;30;20061;-73
2023/05/13 15:12:13;;;;;;;15.38;6.80;;;18.60;74.10;;;;;;4737069;30;20366;-74
2023/05/13 15:14:38;;;;;;;19.48;7.53;;;18.60;74.00;;;;;;4736571;30;20056;-74
2023/05/13 15:17:09;;;;;;;23.50;7.18;;;18.60;74.10;;;;;;4737475;30;20053;-73
2023/05/13 15:19:35;;;;;;;17.52;6.88;;;18.60;74.50;;;;;;4721465;30;20045;-72
2023/05/13 15:22:00;;;;;;;16.60;5.68;;;18.60;74.70;;;;;;4736651;30;20354;-72
2023/05/13 15:24:26;;;;;;;21.05;7.93;;;18.60;74.90;;;;;;4736936;30;20110;-72
2023/05/13 15:26:52;;;;;;;24.92;7.68;;;18.60;75.30;;;;;;4737775;30;20102;-71
2023/05/13 15:29:17;;;;;;;17.08;6.43;;;18.70;75.60;;;;;;4746499;30;20126;-72
2023/05/13 15:31:49;;;;;;;19.00;6.20;;;18.70;75.60;;;;;;4736685;30;20122;-74
2023/05/13 15:34:15;;;;;;;19.48;6.75;;;18.70;76.00;;;;;;4751067;30;20380;-73
2023/05/13 15:36:41;;;;;;;18.98;7.32;;;18.70;76.10;;;;;;4754380;30;20140;-75
2023/05/13 15:39:07;;;;;;;15.50;6.63;;;18.70;75.90;;;;;;4754366;30;20059;-77
2023/05/13 15:41:32;;;;;;;19.08;7.57;;;18.70;75.70;;;;;;4754438;30;20060;-73
2023/05/13 15:43:58;;;;;;;15.70;6.65;;;18.70;75.40;;;;;;4739061;30;20060;-74
2023/05/13 15:46:24;;;;;;;13.80;6.40;;;18.70;75.20;;;;;;4739510;30;20338;-75
2023/05/13 15:48:50;;;;;;;13.95;7.35;;;18.70;75.10;;;;;;4736494;30;20062;-74
2023/05/13 15:51:17;;;;;;;11.13;6.97;;;18.70;74.70;;;;;;4736758;30;20064;-70
2023/05/13 15:53:42;;;;;;;13.25;7.18;;;18.70;74.60;;;;;;4754870;30;20059;-72
2023/05/13 15:56:08;;;;;;;13.65;6.93;;;18.70;74.70;;;;;;4754775;30;20146;-75
2023/05/13 15:58:34;;;;;;;11.85;6.78;;;18.70;75.20;;;;;;4735536;30;20377;-73
2023/05/13 16:01:06;;;;;;;13.38;7.30;;;18.70;75.30;;;;;;4750917;30;20052;-78
2023/05/13 16:03:32;;;;;;;11.90;6.13;;;18.70;75.80;;;;;;4752469;30;20472;-72
2023/05/13 16:05:58;;;;;;;16.77;7.22;;;18.70;75.90;;;;;;4738283;30;20056;-72
2023/05/13 16:08:24;;;;;;;7.47;5.90;;;18.70;76.00;;;;;;4750159;30;20052;-72
2023/05/13 16:10:50;;;;;;;15.07;7.22;;;18.80;76.10;;;;;;4771796;30;20135;-76
2023/05/13 16:13:15;;;;;;;22.13;7.15;;;18.80;76.30;;;;;;4763780;30;20391;-72
2023/05/13 16:15:41;;;;;;;12.82;6.72;;;18.80;76.30;;;;;;4753862;30;20056;-72
2023/05/13 16:18:07;;;;;;;12.65;6.20;;;18.80;76.20;;;;;;4753797;30;20056;-72
2023/05/13 16:20:33;;;;;;;12.07;5.82;;;18.80;76.30;;;;;;4753786;30;20248;-72
2023/05/13 16:22:58;;;;;;;7.63;5.75;;;18.90;76.30;;;;;;4753881;30;20114;-72
2023/05/13 16:25:24;;;;;;;11.10;6.28;;;18.80;76.30;;;;;;4753952;30;20106;-72
2023/05/13 16:27:50;;;;;;;10.82;6.28;;;18.90;76.30;;;;;;4747768;30;20052;-72
2023/05/13 16:30:16;;;;;;;11.85;6.00;;;18.90;76.30;;;;;;4742240;30;20058;-72
2023/05/13 16:32:42;;;;;;;13.82;5.97;;;18.90;76.30;;;;;;4746004;30;20073;-71
2023/05/13 16:35:10;;;;;;;10.48;6.65;;;18.90;77.00;;;;;;4740031;30;20053;-71
2023/05/13 16:37:36;;;;;;;13.75;7.00;;;19.00;77.60;;;;;;4748518;30;20087;-72
2023/05/13 16:40:02;;;;;;;13.77;6.18;;;19.00;77.30;;;;;;4746568;30;20092;-73
2023/05/13 16:42:28;;;;;;;10.85;6.53;;;19.00;77.00;;;;;;4743993;30;20190;-72
2023/05/13 16:44:53;;;;;;;10.02;7.68;;;19.00;75.70;;;;;;4757215;30;20063;-71
2023/05/13 16:47:20;;;;;;;13.63;7.13;;;19.00;73.80;;;;;;4755192;30;20052;-72
2023/05/13 16:49:48;;;;;;;14.15;7.80;;;19.00;74.50;;;;;;4738941;30;20052;-71
2023/05/13 16:52:14;;;;;;;11.40;7.40;;;19.00;74.70;;;;;;4753156;30;20460;-72
2023/05/13 16:54:40;;;;;;;18.23;7.40;;;19.00;74.70;;;;;;4756627;30;20377;-72
2023/05/13 16:57:06;;;;;;;14.93;7.57;;;19.00;75.10;;;;;;4745540;30;20056;-72
2023/05/13 16:59:32;;;;;;;13.50;7.20;;;19.00;75.40;;;;;;4762453;30;20063;-72
2023/05/13 17:01:59;;;;;;;11.93;7.07;;;19.00;75.40;;;;;;4740490;30;20055;-71
2023/05/13 17:04:25;;;;;;;12.23;7.15;;;19.00;75.50;;;;;;4757270;30;20044;-71
2023/05/13 17:06:52;;;;;;;11.27;6.72;;;19.10;75.70;;;;;;4754768;30;20075;-72
2023/05/13 17:09:18;;;;;;;12.55;6.53;;;19.10;75.80;;;;;;4749635;30;20119;-72
2023/05/13 17:11:44;;;;;;;9.30;5.97;;;19.10;75.90;;;;;;4742798;30;20044;-72
2023/05/13 17:14:09;;;;;;;9.45;6.13;;;19.10;75.70;;;;;;4739891;30;20056;-72
2023/05/13 17:16:35;;;;;;;7.93;5.85;;;19.10;75.60;;;;;;4740990;30;20147;-72
2023/05/13 17:19:01;;;;;;;6.93;5.75;;;19.10;75.60;;;;;;4741788;30;20060;-72
2023/05/13 17:21:27;;;;;;;9.55;5.85;;;19.10;75.60;;;;;;4752343;30;20479;-72
2023/05/13 17:23:53;;;;;;;10.65;6.22;;;19.10;75.60;;;;;;4755677;30;20429;-72
2023/05/13 17:26:20;;;;;;;10.25;5.80;;;19.10;75.50;;;;;;4731880;30;20064;-72
2023/05/13 17:28:46;;;;;;;7.80;5.55;;;19.10;75.50;;;;;;4751120;30;20059;-72
2023/05/13 17:31:12;;;;;;;8.57;5.53;;;19.10;75.50;;;;;;4756496;30;20055;-72